Time;durP1;ratioP1;P1;durP2;ratioP2;P2;SDS_P1;SDS_P2;PMS_P1;PMS_P2;Temp;Humidity;BMP_temperature;BMP_pressure;BME280_temperature;BME280_humidity;BME280_pressure;Samples;Min_cycle;Max_cycle;Signal;HPM_P1;HPM_P2
2023/12/12 00:04:07;;;;;;;;;;;;;;;10.52;66.34;99339.41;1088165;54;1223;-81
2023/12/12 00:05:09;;;;;;;;;;;;;;;10.55;66.16;99341.78;1088494;47;1053;-80
2023/12/12 00:06:18;;;;;;;;;;;;;;;10.56;66.39;99343.44;1088338;47;1363;-82
2023/12/12 00:07:19;;;;;;;;;;;;;;;10.58;65.99;99347.63;1088304;47;1840;-81
2023/12/12 00:08:22;;;;;;;;;;;;;;;10.57;66.05;99345.13;1088295;54;1070;-81
2023/12/12 00:09:26;;;;;;;;;;;;;;;10.49;66.35;99351.25;1088134;47;888;-80
2023/12/12 00:10:29;;;;;;;;;;;;;;;10.51;66.25;99354.63;1088056;54;1141;-81
2023/12/12 00:11:30;;;;;;;;;;;;;;;10.57;66.36;99351.28;1087687;47;1009;-80
2023/12/12 00:12:34;;;;;;;;;;;;;;;10.50;66.35;99346.75;1087925;47;1106;-81
2023/12/12 00:13:35;;;;;;;;;;;;;;;10.49;66.51;99337.06;1087770;54;1080;-80
2023/12/12 00:14:39;;;;;;;;;;;;;;;10.43;66.64;99339.38;1087893;54;1068;-82
2023/12/12 00:15:39;;;;;;;;;;;;;;;10.43;66.39;99342.06;1088044;47;1092;-79
2023/12/12 00:16:43;;;;;;;;;;;;;;;10.52;66.50;99344.75;1087771;47;1372;-83
2023/12/12 00:17:44;;;;;;;;;;;;;;;10.52;66.46;99344.75;1087926;54;1170;-82
2023/12/12 00:18:47;;;;;;;;;;;;;;;10.48;66.22;99333.56;1087713;47;1016;-80
2023/12/12 00:19:51;;;;;;;;;;;;;;;10.45;66.39;99337.41;1087805;47;1068;-82
2023/12/12 00:20:55;;;;;;;;;;;;;;;10.41;66.67;99336.03;1087860;47;1050;-82
2023/12/12 00:21:58;;;;;;;;;;;;;;;10.48;66.51;99338.06;1087639;47;1192;-81
2023/12/12 00:23:02;;;;;;;;;;;;;;;10.52;66.25;99331.41;1087485;47;1046;-81
2023/12/12 00:24:05;;;;;;;;;;;;;;;10.51;66.39;99335.91;1087746;54;1182;-81
2023/12/12 00:25:09;;;;;;;;;;;;;;;10.53;66.14;99335.75;1087798;54;1086;-82
2023/12/12 00:26:12;;;;;;;;;;;;;;;10.56;66.03;99338.09;1087409;47;1273;-81
2023/12/12 00:27:15;;;;;;;;;;;;;;;10.42;66.45;99348.41;1087480;47;1856;-80
2023/12/12 00:28:17;;;;;;;;;;;;;;;10.50;66.48;99338.72;1087455;47;1049;-82
2023/12/12 00:29:20;;;;;;;;;;;;;;;10.50;66.27;99338.72;1087656;47;1096;-82
2023/12/12 00:30:21;;;;;;;;;;;;;;;10.52;66.30;99342.09;1087534;54;1203;-82
2023/12/12 00:31:24;;;;;;;;;;;;;;;10.57;66.03;99339.78;1087582;47;1080;-82
2023/12/12 00:32:25;;;;;;;;;;;;;;;10.56;65.99;99340.78;1087694;54;1048;-82
2023/12/12 00:33:29;;;;;;;;;;;;;;;10.59;66.04;99337.75;1087619;47;997;-81
2023/12/12 00:34:30;;;;;;;;;;;;;;;10.57;66.09;99347.78;1087606;54;1159;-81
2023/12/12 00:35:36;;;;;;;;;;;;;;;10.49;66.09;99343.25;1087573;54;1100;-81
2023/12/12 00:36:36;;;;;;;;;;;;;;;10.51;66.33;99340.41;1087577;54;1444;-81
2023/12/12 00:37:40;;;;;;;;;;;;;;;10.51;66.03;99335.91;1087679;47;1144;-82
2023/12/12 00:38:42;;;;;;;;;;;;;;;10.39;66.28;99339.88;1087593;54;1037;-80
2023/12/12 00:39:45;;;;;;;;;;;;;;;10.44;66.60;99335.72;1087670;47;1179;-80
2023/12/12 00:40:51;;;;;;;;;;;;;;;10.49;66.14;99337.91;1087738;54;1152;-81
2023/12/12 00:41:55;;;;;;;;;;;;;;;10.50;65.89;99339.59;1087671;47;1063;-81
2023/12/12 00:42:56;;;;;;;;;;;;;;;10.42;66.56;99337.72;1087868;47;1075;-81
2023/12/12 00:44:00;;;;;;;;;;;;;;;10.48;66.06;99346.91;1087872;47;1108;-83
2023/12/12 00:45:01;;;;;;;;;;;;;;;10.47;66.05;99339.91;1087868;54;1501;-81
2023/12/12 00:46:05;;;;;;;;;;;;;;;10.48;66.07;99344.25;1087772;47;1298;-81
2023/12/12 00:47:05;;;;;;;;;;;;;;;10.41;66.37;99338.69;1087766;54;1064;-83
2023/12/12 00:48:09;;;;;;;;;;;;;;;10.41;66.51;99345.91;1087863;47;1842;-81
2023/12/12 00:49:10;;;;;;;;;;;;;;;10.45;66.16;99353.44;1087775;47;1162;-82
2023/12/12 00:50:13;;;;;;;;;;;;;;;10.50;66.08;99344.06;1087947;54;1080;-81
2023/12/12 00:51:17;;;;;;;;;;;;;;;10.52;66.02;99344.75;1087903;54;1120;-82
2023/12/12 00:52:20;;;;;;;;;;;;;;;10.51;66.30;99340.41;1087604;47;1094;-81
2023/12/12 00:53:22;;;;;;;;;;;;;;;10.50;66.28;99344.06;1087948;54;1052;-81
2023/12/12 00:54:25;;;;;;;;;;;;;;;10.52;66.12;99342.09;1087881;47;1292;-84
2023/12/12 00:55:26;;;;;;;;;;;;;;;10.52;66.04;99352.78;1088321;54;1173;-85
2023/12/12 00:56:33;;;;;;;;;;;;;;;10.53;66.02;99341.09;1088349;54;1464;-83
2023/12/12 00:57:33;;;;;;;;;;;;;;;10.54;66.23;99345.44;1088415;54;982;-84
2023/12/12 00:59:05;;;;;;;;;;;;;;;10.57;66.03;99347.78;1088360;47;1187;-83
2023/12/12 01:00:06;;;;;;;;;;;;;;;10.66;66.13;99348.66;1088459;54;1005;-83
2023/12/12 01:01:19;;;;;;;;;;;;;;;10.66;66.03;99356.66;1088446;54;876;-84
2023/12/12 01:02:22;;;;;;;;;;;;;;;10.51;66.03;99359.97;1088338;54;1058;-86
2023/12/12 01:04:56;;;;;;;;;;;;;;;10.41;66.38;99352.06;1087768;47;1108;-83
2023/12/12 01:05:57;;;;;;;;;;;;;;;10.50;66.46;99352.09;1088447;54;1359;-82
2023/12/12 01:07:16;;;;;;;;;;;;;;;10.47;66.59;99355.09;1088332;47;1023;-82
2023/12/12 01:08:17;;;;;;;;;;;;;;;10.43;66.32;99350.06;1088320;54;1840;-83
2023/12/12 01:09:20;;;;;;;;;;;;;;;10.48;66.44;99351.44;1088458;47;970;-82
2023/12/12 01:10:22;;;;;;;;;;;;;;;10.44;66.46;99351.75;1088500;54;969;-83
2023/12/12 01:11:23;;;;;;;;;;;;;;;10.34;66.96;99352.84;1088616;54;999;-80
2023/12/12 01:12:28;;;;;;;;;;;;;;;10.40;66.81;99349.56;1088204;47;1000;-79
2023/12/12 01:13:30;;;;;;;;;;;;;;;10.35;66.76;99354.50;1088363;54;1178;-80
2023/12/12 01:14:31;;;;;;;;;;;;;;;10.40;66.68;99346.88;1088176;47;1154;-79
2023/12/12 01:15:34;;;;;;;;;;;;;;;10.36;66.78;99354.34;1088297;54;1179;-79
2023/12/12 01:16:35;;;;;;;;;;;;;;;10.35;66.84;99358.03;1088452;54;1407;-81
2023/12/12 01:17:38;;;;;;;;;;;;;;;10.37;67.07;99365.88;1088408;54;1099;-79
2023/12/12 01:18:41;;;;;;;;;;;;;;;10.32;67.26;99362.84;1088067;54;962;-81
2023/12/12 01:19:42;;;;;;;;;;;;;;;10.36;67.03;99359.69;1088361;54;1488;-80
2023/12/12 01:20:46;;;;;;;;;;;;;;;10.34;67.00;99366.22;1088505;54;1553;-80
2023/12/12 01:21:51;;;;;;;;;;;;;;;10.27;67.30;99360.66;1088260;54;1087;-80
2023/12/12 01:23:16;;;;;;;;;;;;;;;10.35;67.17;99358.03;1088404;54;1088;-80
2023/12/12 01:24:19;;;;;;;;;;;;;;;10.28;67.68;99371.19;1088469;46;1004;-81
2023/12/12 01:25:23;;;;;;;;;;;;;;;10.22;67.96;99363.81;1088579;54;1076;-81
2023/12/12 01:26:24;;;;;;;;;;;;;;;10.27;67.81;99355.31;1088540;54;1457;-81
2023/12/12 01:27:27;;;;;;;;;;;;;;;10.30;67.80;99355.84;1088405;54;1109;-82
2023/12/12 01:28:36;;;;;;;;;;;;;;;10.25;67.82;99355.47;1088441;47;1521;-81
2023/12/12 01:29:40;;;;;;;;;;;;;;;10.24;67.81;99355.63;1088421;54;1155;-82
2023/12/12 01:30:40;;;;;;;;;;;;;;;10.26;67.77;99350.97;1088520;54;1070;-80
2023/12/12 01:31:44;;;;;;;;;;;;;;;10.35;67.67;99352.69;1088492;47;995;-80
2023/12/12 01:32:47;;;;;;;;;;;;;;;10.35;67.83;99349.16;1088414;47;1151;-83
2023/12/12 01:33:52;;;;;;;;;;;;;;;10.23;67.92;99352.13;1088444;54;1076;-81
2023/12/12 01:34:53;;;;;;;;;;;;;;;10.37;67.82;99347.16;1088322;54;1016;-79
2023/12/12 01:35:56;;;;;;;;;;;;;;;10.30;67.92;99353.16;1087828;54;1394;-78
2023/12/12 01:36:57;;;;;;;;;;;;;;;10.24;68.34;99345.78;1087740;54;1114;-80
2023/12/12 01:38:03;;;;;;;;;;;;;;;10.19;68.40;99339.25;1087763;54;1178;-82
2023/12/12 01:39:04;;;;;;;;;;;;;;;10.26;68.00;99342.97;1087599;54;1095;-79
2023/12/12 01:40:08;;;;;;;;;;;;;;;10.28;67.85;99341.78;1087703;54;1446;-80
2023/12/12 01:41:12;;;;;;;;;;;;;;;10.39;67.63;99345.22;1087979;54;1114;-79
2023/12/12 01:42:13;;;;;;;;;;;;;;;10.40;67.65;99342.38;1088571;54;1131;-81
2023/12/12 01:44:47;;;;;;;;;;;;;;;10.44;67.52;99349.06;1087877;47;908;-79
2023/12/12 01:45:48;;;;;;;;;;;;;;;10.43;67.76;99341.22;1087402;47;1111;-80
2023/12/12 01:46:53;;;;;;;;;;;;;;;10.40;67.96;99334.34;1087604;54;1355;-80
2023/12/12 01:47:56;;;;;;;;;;;;;;;10.43;67.52;99339.38;1087949;54;1858;-80
2023/12/12 01:48:59;;;;;;;;;;;;;;;10.42;67.69;99339.56;1087520;54;1078;-79
2023/12/12 01:50:07;;;;;;;;;;;;;;;10.35;67.89;99333.97;1087620;46;1149;-79
2023/12/12 01:51:11;;;;;;;;;;;;;;;10.44;67.72;99334.88;1087550;54;1194;-79
2023/12/12 01:52:17;;;;;;;;;;;;;;;10.50;67.51;99333.38;1087557;54;1187;-79
2023/12/12 01:53:23;;;;;;;;;;;;;;;10.59;67.48;99317.22;1087479;54;1130;-79
2023/12/12 01:54:24;;;;;;;;;;;;;;;10.59;67.17;99327.91;1087709;54;1094;-79
2023/12/12 01:55:31;;;;;;;;;;;;;;;10.66;67.32;99327.25;1087876;54;1119;-81
2023/12/12 01:56:32;;;;;;;;;;;;;;;10.68;67.30;99326.09;1087726;54;1409;-79
2023/12/12 01:57:36;;;;;;;;;;;;;;;10.70;67.00;99324.09;1087455;54;1147;-81
2023/12/12 01:58:38;;;;;;;;;;;;;;;10.71;66.79;99325.78;1087661;54;1068;-79
2023/12/12 01:59:41;;;;;;;;;;;;;;;10.73;66.97;99328.28;1087522;54;1161;-79
2023/12/12 02:00:42;;;;;;;;;;;;;;;10.65;67.01;99337.13;1087232;54;1193;-79
2023/12/12 02:01:46;;;;;;;;;;;;;;;10.70;67.06;99325.94;1087453;54;1182;-80
2023/12/12 02:02:48;;;;;;;;;;;;;;;10.67;67.16;99329.78;1087182;54;1028;-79
2023/12/12 02:03:55;;;;;;;;;;;;;;;10.67;66.80;99321.78;1087626;54;1150;-79
2023/12/12 02:04:57;;;;;;;;;;;;;;;10.74;66.90;99321.94;1087546;54;1481;-82
2023/12/12 02:06:00;;;;;;;;;;;;;;;10.67;67.10;99329.78;1087531;47;1324;-79
2023/12/12 02:07:02;;;;;;;;;;;;;;;10.67;66.68;99329.78;1087412;54;1173;-79
2023/12/12 02:08:06;;;;;;;;;;;;;;;10.75;66.92;99331.63;1087473;46;1849;-81
2023/12/12 02:09:10;;;;;;;;;;;;;;;10.75;66.70;99329.81;1087386;47;1149;-79
2023/12/12 02:10:16;;;;;;;;;;;;;;;10.80;66.77;99328.47;1087582;54;976;-81
2023/12/12 02:11:27;;;;;;;;;;;;;;;10.80;66.41;99341.84;1087748;54;1091;-79
2023/12/12 02:12:33;;;;;;;;;;;;;;;10.70;66.91;99333.97;1087694;54;1195;-80
2023/12/12 02:13:37;;;;;;;;;;;;;;;10.70;66.76;99332.13;1087723;54;1132;-79
2023/12/12 02:14:42;;;;;;;;;;;;;;;10.73;66.47;99334.47;1087565;54;1502;-81
2023/12/12 02:15:44;;;;;;;;;;;;;;;10.81;66.44;99330.13;1087924;54;1130;-82
2023/12/12 02:16:48;;;;;;;;;;;;;;;10.80;66.19;99323.13;1088393;54;1492;-82
2023/12/12 02:48:12;;;;;;;;;;;;;;;10.79;66.48;99305.41;1077742;54;3519;-79
2023/12/12 02:50:54;;;;;;;;;;;;;;;10.80;66.29;99296.38;1088994;47;801;-82
2023/12/12 02:51:55;;;;;;;;;;;;;;;10.73;66.67;99307.75;1088404;54;954;-78
2023/12/12 02:52:59;;;;;;;;;;;;;;;10.73;66.61;99302.41;1088447;54;952;-77
2023/12/12 02:54:00;;;;;;;;;;;;;;;10.76;66.31;99307.41;1088223;46;940;-78
2023/12/12 02:55:00;;;;;;;;;;;;;;;10.75;66.24;99299.53;1088073;47;906;-79
2023/12/12 02:56:04;;;;;;;;;;;;;;;10.75;66.35;99302.22;1088153;54;1292;-78
2023/12/12 02:57:04;;;;;;;;;;;;;;;10.74;66.41;99308.56;1088044;47;965;-78
2023/12/12 02:58:07;;;;;;;;;;;;;;;10.76;66.43;99309.25;1087993;47;928;-78
2023/12/12 02:59:08;;;;;;;;;;;;;;;10.75;66.34;99315.59;1088035;47;875;-77
2023/12/12 03:00:12;;;;;;;;;;;;;;;10.69;66.50;99317.06;1088058;54;939;-78
2023/12/12 03:01:12;;;;;;;;;;;;;;;10.70;66.49;99310.72;1088157;47;907;-78
2023/12/12 03:02:16;;;;;;;;;;;;;;;10.71;66.39;99308.91;1088155;47;875;-77
2023/12/12 03:03:17;;;;;;;;;;;;;;;10.68;66.35;99302.03;1088093;47;1109;-78
2023/12/12 03:04:20;;;;;;;;;;;;;;;10.70;66.62;99301.88;1088187;54;942;-78
2023/12/12 03:05:21;;;;;;;;;;;;;;;10.73;66.50;99301.53;1088185;54;1110;-78
2023/12/12 03:06:27;;;;;;;;;;;;;;;10.72;66.35;99298.03;1088080;54;1348;-78
2023/12/12 03:07:28;;;;;;;;;;;;;;;10.75;66.43;99300.41;1088157;54;1040;-80
2023/12/12 03:08:28;;;;;;;;;;;;;;;10.70;66.50;99302.72;1088161;54;1842;-79
2023/12/12 03:09:31;;;;;;;;;;;;;;;10.73;66.17;99301.53;1088095;47;875;-79
2023/12/12 03:10:32;;;;;;;;;;;;;;;10.71;66.54;99301.72;1088013;47;875;-79
2023/12/12 03:11:36;;;;;;;;;;;;;;;10.69;66.27;99300.22;1088125;47;965;-79
2023/12/12 03:12:37;;;;;;;;;;;;;;;10.63;66.32;99290.19;1088087;54;1014;-78
2023/12/12 03:13:40;;;;;;;;;;;;;;;10.63;66.59;99285.66;1088080;54;884;-80
2023/12/12 03:14:41;;;;;;;;;;;;;;;10.60;66.70;99281.47;1088105;47;1103;-79
2023/12/12 03:15:44;;;;;;;;;;;;;;;10.60;66.16;99278.81;1088139;54;1049;-78
2023/12/12 03:16:45;;;;;;;;;;;;;;;10.56;66.37;99281.97;1088076;54;1390;-78
2023/12/12 03:17:48;;;;;;;;;;;;;;;10.49;66.50;99278.25;1088056;54;1145;-78
2023/12/12 03:18:49;;;;;;;;;;;;;;;10.52;66.34;99283.28;1088110;54;997;-79
2023/12/12 03:19:53;;;;;;;;;;;;;;;10.48;66.72;99287.31;1088029;47;989;-79
2023/12/12 03:20:53;;;;;;;;;;;;;;;10.42;66.65;99284.28;1088149;54;930;-79
2023/12/12 03:22:00;;;;;;;;;;;;;;;10.49;66.54;99284.47;1088057;47;963;-78
2023/12/12 03:23:01;;;;;;;;;;;;;;;10.47;66.49;99288.31;1088141;54;916;-79
2023/12/12 03:24:05;;;;;;;;;;;;;;;10.48;66.48;99284.63;1088040;47;941;-79
2023/12/12 03:25:06;;;;;;;;;;;;;;;10.46;66.50;99284.78;1088058;46;1005;-79
2023/12/12 03:26:11;;;;;;;;;;;;;;;10.43;66.39;99280.59;1088034;47;1396;-79
2023/12/12 03:27:11;;;;;;;;;;;;;;;10.46;66.34;99284.78;1088046;47;982;-79
2023/12/12 03:28:15;;;;;;;;;;;;;;;10.40;66.91;99280.91;1088049;54;1858;-78
2023/12/12 03:29:15;;;;;;;;;;;;;;;10.36;66.53;99279.56;1087992;54;923;-80
2023/12/12 03:30:16;;;;;;;;;;;;;;;10.40;66.76;99275.56;1088105;54;1098;-80
2023/12/12 03:31:19;;;;;;;;;;;;;;;10.41;66.44;99279.91;1088178;54;1015;-80
2023/12/12 03:32:20;;;;;;;;;;;;;;;10.38;66.59;99277.59;1088104;54;1024;-79
2023/12/12 03:33:25;;;;;;;;;;;;;;;10.42;66.66;99286.94;1088070;47;951;-79
2023/12/12 03:34:25;;;;;;;;;;;;;;;10.40;66.50;99277.41;1088086;47;935;-80
2023/12/12 03:35:28;;;;;;;;;;;;;;;10.39;66.72;99279.25;1088181;54;1025;-80
2023/12/12 03:36:29;;;;;;;;;;;;;;;10.43;66.54;99274.44;1087658;47;1242;-79
2023/12/12 03:37:33;;;;;;;;;;;;;;;10.45;66.21;99269.75;1087683;54;943;-79
2023/12/12 03:38:36;;;;;;;;;;;;;;;10.45;66.40;99273.25;1087407;54;1001;-79
2023/12/12 03:39:37;;;;;;;;;;;;;;;10.49;66.58;99259.56;1087656;47;1003;-79
2023/12/12 03:40:40;;;;;;;;;;;;;;;10.52;66.44;99264.59;1088180;54;1002;-80
2023/12/12 03:41:41;;;;;;;;;;;;;;;10.54;66.02;99260.75;1088136;47;901;-80
2023/12/12 03:42:45;;;;;;;;;;;;;;;10.57;66.05;99267.63;1087665;47;922;-80
2023/12/12 03:43:45;;;;;;;;;;;;;;;10.54;65.94;99266.09;1087674;47;959;-79
2023/12/12 03:44:46;;;;;;;;;;;;;;;10.56;65.95;99269.44;1088112;54;1025;-79
2023/12/12 03:45:49;;;;;;;;;;;;;;;10.53;65.92;99268.94;1087973;47;1009;-79
2023/12/12 03:46:50;;;;;;;;;;;;;;;10.51;66.17;99270.91;1087961;47;1342;-79
2023/12/12 03:47:53;;;;;;;;;;;;;;;10.51;66.08;99270.91;1088071;54;1018;-80
2023/12/12 03:48:54;;;;;;;;;;;;;;;10.53;66.01;99275.09;1087376;54;1842;-80
2023/12/12 03:49:57;;;;;;;;;;;;;;;10.51;65.76;99271.78;1087511;47;866;-79
2023/12/12 03:50:58;;;;;;;;;;;;;;;10.53;65.71;99269.75;1087091;47;901;-79
2023/12/12 03:51:59;;;;;;;;;;;;;;;10.50;65.91;99266.56;1087425;54;1028;-79
2023/12/12 03:53:05;;;;;;;;;;;;;;;10.54;65.81;99275.94;1087540;47;962;-79
2023/12/12 03:54:06;;;;;;;;;;;;;;;10.54;65.91;99270.59;1087512;47;980;-79
2023/12/12 03:55:09;;;;;;;;;;;;;;;10.52;65.79;99264.59;1087537;47;982;-79
2023/12/12 03:56:10;;;;;;;;;;;;;;;10.54;65.80;99259.91;1087652;47;1277;-80
2023/12/12 03:57:13;;;;;;;;;;;;;;;10.56;65.52;99258.75;1087689;47;939;-79
2023/12/12 03:58:14;;;;;;;;;;;;;;;10.57;65.46;99256.94;1087698;54;979;-79
2023/12/12 03:59:15;;;;;;;;;;;;;;;10.54;65.72;99263.41;1087656;54;1071;-79
2023/12/12 04:00:18;;;;;;;;;;;;;;;10.57;65.32;99265.75;1087782;47;1064;-80
2023/12/12 04:01:20;;;;;;;;;;;;;;;10.57;65.59;99267.63;1087818;54;1017;-80
2023/12/12 04:02:24;;;;;;;;;;;;;;;10.57;65.58;99265.75;1087697;54;981;-79
2023/12/12 04:03:24;;;;;;;;;;;;;;;10.66;65.47;99263.09;1087600;54;1015;-80
2023/12/12 04:04:28;;;;;;;;;;;;;;;10.68;65.47;99261.94;1087663;47;856;-80
2023/12/12 04:05:28;;;;;;;;;;;;;;;10.69;65.22;99254.78;1087711;54;905;-79
2023/12/12 04:06:29;;;;;;;;;;;;;;;10.71;65.41;99250.09;1087559;47;1395;-80
2023/12/12 04:07:32;;;;;;;;;;;;;;;10.70;65.18;99249.25;1087513;47;1024;-80
2023/12/12 04:08:35;;;;;;;;;;;;;;;10.72;65.36;99244.56;1087529;47;1844;-80
2023/12/12 04:09:39;;;;;;;;;;;;;;;10.73;64.91;99254.28;1087498;47;1018;-78
2023/12/12 04:10:39;;;;;;;;;;;;;;;10.72;64.90;99254.44;1087605;54;908;-78
2023/12/12 04:11:43;;;;;;;;;;;;;;;10.65;65.04;99251.59;1087498;47;944;-77
2023/12/12 04:12:43;;;;;;;;;;;;;;;10.67;65.37;99251.41;1087460;54;1004;-79
2023/12/12 04:13:46;;;;;;;;;;;;;;;10.68;65.02;99248.56;1087362;47;1062;-79
2023/12/12 04:14:47;;;;;;;;;;;;;;;10.62;65.33;99238.53;1087616;54;1005;-79
2023/12/12 04:15:50;;;;;;;;;;;;;;;10.60;65.09;99241.41;1087621;54;924;-81
2023/12/12 04:16:51;;;;;;;;;;;;;;;10.59;65.13;99238.88;1087551;54;1481;-80
2023/12/12 04:17:54;;;;;;;;;;;;;;;10.65;64.97;99234.69;1087630;54;1077;-79
2023/12/12 04:18:55;;;;;;;;;;;;;;;10.67;65.24;99240.72;1087628;47;984;-80
2023/12/12 04:19:56;;;;;;;;;;;;;;;10.60;65.14;99241.41;1087630;54;996;-80
2023/12/12 04:20:59;;;;;;;;;;;;;;;10.58;65.19;99243.38;1087708;54;1013;-80
2023/12/12 04:22:00;;;;;;;;;;;;;;;10.57;65.35;99244.38;1087704;54;935;-80
2023/12/12 04:23:03;;;;;;;;;;;;;;;10.56;65.21;99248.06;1087664;47;853;-80
2023/12/12 04:24:07;;;;;;;;;;;;;;;10.59;65.39;99246.88;1087638;54;959;-79
2023/12/12 04:25:13;;;;;;;;;;;;;;;10.59;65.43;99244.22;1087610;54;1012;-78
2023/12/12 04:26:13;;;;;;;;;;;;;;;10.55;65.40;99250.91;1087457;47;1315;-78
2023/12/12 04:27:16;;;;;;;;;;;;;;;10.54;65.49;99250.06;1087578;54;1003;-78
2023/12/12 04:28:17;;;;;;;;;;;;;;;10.52;65.27;99246.72;1087582;47;925;-79
2023/12/12 04:29:20;;;;;;;;;;;;;;;10.53;65.06;99243.03;1087553;54;1857;-78
2023/12/12 04:30:21;;;;;;;;;;;;;;;10.55;65.15;99245.56;1087548;54;907;-76
2023/12/12 04:31:24;;;;;;;;;;;;;;;10.51;65.28;99245.06;1087563;47;822;-77
2023/12/12 04:32:25;;;;;;;;;;;;;;;10.52;65.06;99246.72;1087614;54;887;-77
2023/12/12 04:33:26;;;;;;;;;;;;;;;10.48;65.14;99241.88;1087551;54;946;-77
2023/12/12 04:34:32;;;;;;;;;;;;;;;10.43;65.27;99237.03;1087483;47;947;-78
2023/12/12 04:35:33;;;;;;;;;;;;;;;10.42;65.56;99246.03;1087565;54;1050;-78
2023/12/12 04:36:36;;;;;;;;;;;;;;;10.40;65.65;99245.34;1087454;54;1269;-78
2023/12/12 04:37:37;;;;;;;;;;;;;;;10.37;65.39;99238.50;1087558;54;974;-78
2023/12/12 04:38:40;;;;;;;;;;;;;;;10.39;65.50;99247.16;1087556;47;1177;-78
2023/12/12 04:39:43;;;;;;;;;;;;;;;10.39;65.64;99244.50;1087595;54;1022;-78
2023/12/12 04:40:47;;;;;;;;;;;;;;;10.38;65.46;99245.53;1087564;47;951;-79
2023/12/12 04:41:48;;;;;;;;;;;;;;;10.39;65.59;99238.34;1087535;47;947;-78
2023/12/12 04:42:52;;;;;;;;;;;;;;;10.43;65.29;99253.88;1087665;54;917;-78
2023/12/12 04:43:52;;;;;;;;;;;;;;;10.44;65.20;99246.69;1087584;54;966;-77
2023/12/12 04:44:56;;;;;;;;;;;;;;;10.48;65.34;99248.03;1087591;54;987;-79
2023/12/12 04:45:56;;;;;;;;;;;;;;;10.48;65.15;99250.72;1087654;47;1454;-78
2023/12/12 04:47:00;;;;;;;;;;;;;;;10.45;65.19;99246.53;1087888;47;1022;-78
2023/12/12 04:48:00;;;;;;;;;;;;;;;10.44;65.13;99250.22;1087791;47;1010;-78
2023/12/12 04:49:04;;;;;;;;;;;;;;;10.47;65.12;99246.38;1087781;54;1863;-79
2023/12/12 04:50:05;;;;;;;;;;;;;;;10.45;64.97;99243.00;1087835;47;1015;-78
2023/12/12 04:51:09;;;;;;;;;;;;;;;10.43;65.05;99242.38;1087882;47;900;-78
2023/12/12 04:52:10;;;;;;;;;;;;;;;10.44;64.98;99242.19;1088009;47;965;-78
2023/12/12 04:53:13;;;;;;;;;;;;;;;10.47;65.08;99240.19;1087900;47;957;-78
2023/12/12 04:54:14;;;;;;;;;;;;;;;10.48;65.15;99236.53;1087827;47;1041;-78
2023/12/12 04:55:20;;;;;;;;;;;;;;;10.56;64.92;99232.03;1087845;54;983;-78
2023/12/12 04:56:20;;;;;;;;;;;;;;;10.66;64.93;99233.69;1087861;54;1235;-79
2023/12/12 04:57:21;;;;;;;;;;;;;;;10.71;64.60;99232.22;1087852;47;1020;-78
2023/12/12 04:58:24;;;;;;;;;;;;;;;10.79;64.30;99230.53;1087806;54;925;-78
2023/12/12 04:59:25;;;;;;;;;;;;;;;10.83;64.56;99221.19;1087984;46;954;-78
2023/12/12 05:00:28;;;;;;;;;;;;;;;10.90;64.35;99235.56;1087851;47;955;-80
2023/12/12 05:01:29;;;;;;;;;;;;;;;10.90;64.04;99227.53;1087952;54;1068;-77
2023/12/12 05:02:33;;;;;;;;;;;;;;;10.92;64.17;99228.22;1087858;47;1050;-77
2023/12/12 05:03:34;;;;;;;;;;;;;;;10.91;63.90;99223.88;1087933;54;1000;-78
2023/12/12 05:04:37;;;;;;;;;;;;;;;10.98;63.54;99219.50;1087904;54;1064;-78
2023/12/12 05:05:38;;;;;;;;;;;;;;;10.94;63.77;99223.53;1087913;46;952;-78
2023/12/12 05:06:41;;;;;;;;;;;;;;;11.02;63.65;99226.22;1087806;47;1226;-79
2023/12/12 05:07:42;;;;;;;;;;;;;;;11.02;63.39;99228.03;1087872;47;913;-78
2023/12/12 05:08:46;;;;;;;;;;;;;;;10.98;63.69;99230.22;1087793;47;1861;-79
2023/12/12 05:09:46;;;;;;;;;;;;;;;10.95;63.47;99238.59;1087848;46;980;-78
2023/12/12 05:10:52;;;;;;;;;;;;;;;10.97;63.36;99231.22;1087847;47;932;-78
2023/12/12 05:11:53;;;;;;;;;;;;;;;11.03;63.62;99233.22;1087897;54;1098;-79
2023/12/12 05:12:57;;;;;;;;;;;;;;;11.01;63.57;99234.38;1087865;54;998;-79
2023/12/12 05:13:58;;;;;;;;;;;;;;;10.97;63.54;99225.88;1087927;54;1064;-78
2023/12/12 05:15:01;;;;;;;;;;;;;;;10.99;63.33;99220.38;1087768;54;996;-78
2023/12/12 05:16:03;;;;;;;;;;;;;;;11.03;63.64;99219.88;1087659;47;1240;-79
2023/12/12 05:17:06;;;;;;;;;;;;;;;11.04;63.23;99218.88;1087916;54;987;-78
2023/12/12 05:18:07;;;;;;;;;;;;;;;11.10;63.30;99217.31;1087794;47;980;-78
2023/12/12 05:19:10;;;;;;;;;;;;;;;11.11;63.30;99220.84;1087747;47;944;-79
2023/12/12 05:20:13;;;;;;;;;;;;;;;11.08;63.18;99230.06;1087807;47;971;-78
2023/12/12 05:21:17;;;;;;;;;;;;;;;11.03;63.36;99230.56;1087743;47;956;-78
2023/12/12 05:22:18;;;;;;;;;;;;;;;10.95;63.39;99238.59;1087789;54;1133;-79
2023/12/12 05:23:21;;;;;;;;;;;;;;;10.92;63.66;99236.25;1087933;46;954;-78
2023/12/12 05:24:22;;;;;;;;;;;;;;;10.88;63.41;99230.41;1087746;47;926;-79
2023/12/12 05:25:25;;;;;;;;;;;;;;;10.85;63.52;99235.25;1087806;54;898;-78
2023/12/12 05:26:28;;;;;;;;;;;;;;;10.88;63.64;99229.53;1087842;54;1326;-79
2023/12/12 05:27:32;;;;;;;;;;;;;;;10.91;63.56;99221.19;1087865;54;954;-78
2023/12/12 05:28:32;;;;;;;;;;;;;;;10.93;63.57;99222.69;1087823;54;966;-78
2023/12/12 05:29:33;;;;;;;;;;;;;;;10.97;63.33;99223.19;1087685;47;1860;-78
2023/12/12 05:30:36;;;;;;;;;;;;;;;10.97;63.35;99228.53;1087749;47;972;-79
2023/12/12 05:31:37;;;;;;;;;;;;;;;11.03;63.25;99222.53;1087826;46;935;-78
2023/12/12 05:32:42;;;;;;;;;;;;;;;11.03;63.44;99222.53;1087697;47;893;-78
2023/12/12 05:33:42;;;;;;;;;;;;;;;11.06;63.34;99219.50;1087735;46;1001;-79
2023/12/12 05:34:43;;;;;;;;;;;;;;;11.08;63.07;99225.53;1087786;54;984;-78
2023/12/12 05:35:48;;;;;;;;;;;;;;;11.08;63.12;99222.03;1087836;54;995;-79
2023/12/12 05:36:48;;;;;;;;;;;;;;;11.06;63.22;99224.84;1087639;54;1247;-79
2023/12/12 05:37:51;;;;;;;;;;;;;;;11.10;63.11;99221.84;1087727;47;963;-79
2023/12/12 05:38:52;;;;;;;;;;;;;;;11.06;63.20;99216.84;1087825;54;983;-77
2023/12/12 05:39:53;;;;;;;;;;;;;;;11.08;63.00;99222.03;1087691;47;895;-78
2023/12/12 05:40:56;;;;;;;;;;;;;;;11.06;62.86;99222.19;1087865;54;972;-77
2023/12/12 05:42:01;;;;;;;;;;;;;;;10.94;63.19;99218.19;1087814;47;967;-79
2023/12/12 05:43:04;;;;;;;;;;;;;;;10.91;63.15;99218.53;1087840;54;993;-78
2023/12/12 05:44:05;;;;;;;;;;;;;;;10.90;63.35;99224.88;1087800;47;915;-78
2023/12/12 05:45:09;;;;;;;;;;;;;;;10.91;63.29;99223.88;1087809;47;999;-78
2023/12/12 05:46:10;;;;;;;;;;;;;;;10.88;63.41;99229.53;1087849;54;1355;-79
2023/12/12 05:47:14;;;;;;;;;;;;;;;10.85;63.58;99227.22;1087832;47;1026;-78
2023/12/12 05:48:14;;;;;;;;;;;;;;;10.91;63.35;99223.88;1087713;47;882;-78
2023/12/12 05:49:18;;;;;;;;;;;;;;;10.88;63.27;99225.03;1087659;54;1853;-79
2023/12/12 05:50:18;;;;;;;;;;;;;;;10.87;63.55;99218.03;1087806;47;1010;-78
2023/12/12 05:51:21;;;;;;;;;;;;;;;10.87;63.58;99218.03;1087789;47;984;-78
2023/12/12 05:52:23;;;;;;;;;;;;;;;10.85;63.65;99222.69;1087662;47;995;-78
2023/12/12 05:53:23;;;;;;;;;;;;;;;10.87;63.64;99209.16;1087772;54;1038;-78
2023/12/12 05:54:27;;;;;;;;;;;;;;;10.86;63.30;99211.00;1087678;47;1027;-78
2023/12/12 05:55:28;;;;;;;;;;;;;;;10.90;63.51;99204.31;1087756;54;1139;-80
2023/12/12 05:56:31;;;;;;;;;;;;;;;10.92;63.30;99215.66;1087740;54;1214;-78
2023/12/12 05:57:34;;;;;;;;;;;;;;;10.90;63.44;99211.50;1087708;47;886;-78
2023/12/12 05:58:39;;;;;;;;;;;;;;;10.89;63.27;99209.81;1087760;54;977;-79
2023/12/12 05:59:39;;;;;;;;;;;;;;;10.87;63.52;99206.47;1087824;54;1034;-78
2023/12/12 06:00:43;;;;;;;;;;;;;;;10.86;63.43;99205.66;1087770;54;1014;-78
2023/12/12 06:01:44;;;;;;;;;;;;;;;10.88;63.63;99198.31;1087743;47;882;-78
2023/12/12 06:02:48;;;;;;;;;;;;;;;10.89;63.44;99199.13;1087684;47;877;-79
2023/12/12 06:03:48;;;;;;;;;;;;;;;10.82;63.63;99204.31;1087871;54;993;-78
2023/12/12 06:04:52;;;;;;;;;;;;;;;10.79;63.51;99201.13;1087843;54;1045;-79
2023/12/12 06:05:52;;;;;;;;;;;;;;;10.82;63.32;99198.13;1087798;54;1331;-78
2023/12/12 06:06:54;;;;;;;;;;;;;;;10.78;63.41;99186.94;1087730;47;968;-79
2023/12/12 06:07:57;;;;;;;;;;;;;;;10.84;63.27;99190.78;1087740;47;901;-78
2023/12/12 06:08:58;;;;;;;;;;;;;;;10.82;63.66;99188.25;1087796;54;922;-79
2023/12/12 06:10:01;;;;;;;;;;;;;;;10.82;63.68;99196.28;1087707;47;1880;-78
2023/12/12 06:11:02;;;;;;;;;;;;;;;10.81;63.35;99193.78;1087762;47;1154;-78